createdAt,value
2023-02-04T00:00:39.353Z,8.19
2023-02-04T00:01:21.127Z,8.19
2023-02-04T00:02:02.910Z,8.20
2023-02-04T00:02:44.794Z,8.20
2023-02-04T00:03:26.468Z,8.14
2023-02-04T00:04:08.107Z,8.10
2023-02-04T00:04:49.841Z,8.18
2023-02-04T00:05:31.538Z,8.18
2023-02-04T00:06:13.441Z,8.01
2023-02-04T00:06:55.096Z,8.07
2023-02-04T00:07:36.983Z,8.16
2023-02-04T00:08:19.551Z,8.11
2023-02-04T00:09:01.268Z,8.24
2023-02-04T00:09:42.948Z,8.25
2023-02-04T00:10:24.705Z,7.79
2023-02-04T00:11:06.328Z,8.26
2023-02-04T00:11:48.337Z,8.23
2023-02-04T00:12:30.196Z,8.24
2023-02-04T00:13:11.859Z,8.22
2023-02-04T00:13:53.844Z,8.22
2023-02-04T00:14:35.518Z,8.18
2023-02-04T00:15:17.404Z,8.23
2023-02-04T00:15:59.100Z,8.09
2023-02-04T00:16:40.771Z,8.24
2023-02-04T00:17:22.437Z,8.25
2023-02-04T00:18:05.673Z,8.13
2023-02-04T00:18:47.299Z,8.22
2023-02-04T00:19:28.916Z,8.17
2023-02-04T00:20:11.027Z,8.17
2023-02-04T00:20:52.730Z,8.22
2023-02-04T00:21:34.370Z,8.19
2023-02-04T00:22:16.080Z,8.21
2023-02-04T00:22:57.660Z,8.07
2023-02-04T00:23:39.254Z,8.00
2023-02-04T00:24:20.926Z,8.03
2023-02-04T00:25:02.603Z,8.08
2023-02-04T00:25:44.209Z,8.16
2023-02-04T00:26:25.906Z,8.19
2023-02-04T00:27:07.553Z,8.21
2023-02-04T00:27:49.237Z,8.22
2023-02-04T00:28:30.911Z,8.23
2023-02-04T00:29:12.587Z,8.26
2023-02-04T00:29:54.191Z,8.29
2023-02-04T00:30:35.995Z,8.28
2023-02-04T00:31:17.734Z,8.16
2023-02-04T00:31:59.711Z,8.19
2023-02-04T00:32:42.342Z,8.21
2023-02-04T00:33:23.968Z,8.16
2023-02-04T00:34:05.609Z,8.16
2023-02-04T00:34:47.270Z,7.98
2023-02-04T00:35:29.008Z,8.03
2023-02-04T00:36:10.909Z,8.09
2023-02-04T00:36:52.542Z,8.14
2023-02-04T00:37:34.348Z,7.96
2023-02-04T00:38:16.277Z,8.12
2023-02-04T00:38:57.938Z,8.11
2023-02-04T00:39:39.608Z,7.98
2023-02-04T00:40:21.281Z,7.93
2023-02-04T00:41:02.989Z,8.11
2023-02-04T00:41:44.622Z,8.05
2023-02-04T00:42:26.231Z,8.10
2023-02-04T00:43:07.899Z,7.92
2023-02-04T00:43:49.568Z,8.10
2023-02-04T00:44:31.273Z,8.10
2023-02-04T00:45:13.645Z,8.11
2023-02-04T00:45:55.405Z,8.11
2023-02-04T00:46:37.055Z,8.09
2023-02-04T00:47:19.369Z,7.93
2023-02-04T00:48:01.098Z,8.08
2023-02-04T00:48:42.718Z,8.09
2023-02-04T00:49:24.483Z,8.10
2023-02-04T00:50:06.619Z,8.11
2023-02-04T00:50:48.283Z,7.98
2023-02-04T00:51:29.918Z,8.11
2023-02-04T00:52:11.573Z,7.93
2023-02-04T00:52:53.205Z,8.05
2023-02-04T00:53:34.859Z,8.11
2023-02-04T00:54:16.792Z,8.05
2023-02-04T00:54:58.519Z,8.11
2023-02-04T00:55:40.126Z,8.12
2023-02-04T00:56:21.760Z,8.12
2023-02-04T00:57:03.485Z,8.11
2023-02-04T00:57:47.583Z,8.11
2023-02-04T00:58:29.273Z,8.04
2023-02-04T00:59:11.549Z,8.14
2023-02-04T00:59:53.187Z,8.11
2023-02-04T01:00:34.882Z,8.14
2023-02-04T01:01:16.587Z,8.15
2023-02-04T01:01:58.247Z,8.14
2023-02-04T01:02:40.781Z,8.07
2023-02-04T01:03:22.612Z,8.13
2023-02-04T01:04:04.819Z,8.05
2023-02-04T01:04:46.604Z,8.15
2023-02-04T01:05:28.256Z,8.13
2023-02-04T01:06:10.024Z,8.20
2023-02-04T01:06:51.756Z,8.21
2023-02-04T01:07:33.513Z,8.22
2023-02-04T01:08:15.228Z,8.19
2023-02-04T01:08:56.891Z,8.23
2023-02-04T01:09:38.648Z,8.22
2023-02-04T01:10:20.362Z,8.10
2023-02-04T01:11:02.263Z,8.22
2023-02-04T01:11:43.864Z,8.09
2023-02-04T01:12:27.364Z,8.20
2023-02-04T01:13:09.274Z,8.22
2023-02-04T01:13:51.029Z,8.22
2023-02-04T01:14:32.809Z,8.19
2023-02-04T01:15:14.485Z,8.17
2023-02-04T01:15:56.133Z,8.20
2023-02-04T01:16:37.871Z,8.19
2023-02-04T01:17:19.933Z,8.05
2023-02-04T01:18:01.552Z,8.17
2023-02-04T01:18:43.231Z,8.15
2023-02-04T01:19:25.021Z,8.07
2023-02-04T01:20:07.245Z,8.13
2023-02-04T01:20:48.921Z,8.12
2023-02-04T01:21:32.034Z,8.13
2023-02-04T01:22:14.056Z,8.04
2023-02-04T01:22:55.778Z,8.04
2023-02-04T01:23:37.898Z,8.11
2023-02-04T01:24:19.507Z,8.10
2023-02-04T01:25:20.087Z,8.09
2023-02-04T01:26:01.801Z,8.04
2023-02-04T01:26:43.502Z,8.11
2023-02-04T01:27:25.788Z,8.04
2023-02-04T01:28:07.625Z,8.11
2023-02-04T01:28:50.144Z,8.05
2023-02-04T01:29:32.085Z,8.06
2023-02-04T01:30:16.050Z,8.15
2023-02-04T01:30:57.883Z,8.15
2023-02-04T01:31:39.623Z,8.15
2023-02-04T01:32:21.358Z,8.13
2023-02-04T01:33:03.125Z,8.15
2023-02-04T01:33:44.868Z,8.14
2023-02-04T01:34:26.768Z,8.13
2023-02-04T01:35:08.623Z,8.06
2023-02-04T01:35:50.330Z,8.01
2023-02-04T01:36:32.125Z,8.02
2023-02-04T01:37:13.981Z,8.12
2023-02-04T01:37:56.545Z,8.10
2023-02-04T01:38:38.155Z,7.97
2023-02-04T01:39:19.813Z,8.10
2023-02-04T01:40:01.999Z,8.04
2023-02-04T01:40:43.871Z,8.12
2023-02-04T01:41:26.726Z,8.07
2023-02-04T01:42:08.409Z,8.13
2023-02-04T01:42:50.706Z,7.96
2023-02-04T01:43:32.786Z,8.10
2023-02-04T01:44:14.522Z,8.10
2023-02-04T01:44:56.406Z,8.12
2023-02-04T01:45:38.501Z,8.12
2023-02-04T01:46:20.412Z,8.07
2023-02-04T01:47:02.186Z,8.04
2023-02-04T01:47:44.916Z,8.02
2023-02-04T01:48:26.615Z,8.14
2023-02-04T01:49:10.107Z,8.12
2023-02-04T01:49:54.628Z,8.10
2023-02-04T01:50:36.421Z,8.14
2023-02-04T01:51:27.005Z,8.06
2023-02-04T01:52:11.274Z,7.83
2023-02-04T01:52:52.983Z,8.15
2023-02-04T01:53:35.429Z,8.16
2023-02-04T01:54:17.991Z,8.17
2023-02-04T01:54:59.668Z,8.04
2023-02-04T01:55:41.382Z,8.11
2023-02-04T01:56:26.730Z,8.18
2023-02-04T01:57:14.857Z,8.17
2023-02-04T01:57:58.786Z,8.18
2023-02-04T01:58:40.508Z,8.02
2023-02-04T01:59:23.062Z,8.18
2023-02-04T02:00:10.622Z,8.16
2023-02-04T02:00:55.107Z,8.08
2023-02-04T02:01:41.777Z,8.20
2023-02-04T02:02:48.385Z,8.16
2023-02-04T02:03:30.049Z,8.21
2023-02-04T02:04:15.144Z,8.04
2023-02-04T02:04:56.760Z,8.21
2023-02-04T02:05:49.109Z,8.22
2023-02-04T02:06:30.903Z,8.22
2023-02-04T02:07:13.262Z,8.22
2023-02-04T02:07:57.744Z,8.12
2023-02-04T02:08:39.719Z,8.15
2023-02-04T02:09:21.539Z,8.20
2023-02-04T02:10:05.875Z,8.19
2023-02-04T02:10:49.316Z,8.13
2023-02-04T02:11:32.389Z,8.16
2023-02-04T02:12:14.491Z,8.17
2023-02-04T02:12:56.720Z,8.17
2023-02-04T02:13:38.443Z,8.16
2023-02-04T02:14:20.471Z,8.17
2023-02-04T02:15:02.348Z,8.11
2023-02-04T02:15:44.512Z,8.12
2023-02-04T02:16:26.332Z,8.15
2023-02-04T02:17:08.044Z,8.16
2023-02-04T02:17:52.556Z,8.15
2023-02-04T02:18:34.355Z,8.15
2023-02-04T02:19:24.602Z,8.11
2023-02-04T02:20:08.075Z,8.04
2023-02-04T02:20:49.798Z,8.14
2023-02-04T02:21:37.818Z,8.16
2023-02-04T02:22:27.158Z,8.15
2023-02-04T02:23:24.804Z,8.17
2023-02-04T02:24:26.961Z,8.15
2023-02-04T02:25:13.053Z,8.08
2023-02-04T02:25:54.878Z,8.13
2023-02-04T02:26:36.536Z,8.09
2023-02-04T02:27:18.317Z,8.08
2023-02-04T02:28:01.766Z,8.09
2023-02-04T02:28:44.396Z,8.10
2023-02-04T02:29:27.618Z,8.10
2023-02-04T02:30:11.294Z,8.09
2023-02-04T02:30:53.194Z,7.78
2023-02-04T02:31:35.014Z,8.05
2023-02-04T02:32:17.409Z,7.92
2023-02-04T02:33:00.214Z,8.08
2023-02-04T02:33:42.498Z,8.09
2023-02-04T02:34:25.744Z,8.09
2023-02-04T02:35:08.186Z,7.92
2023-02-04T02:35:50.085Z,8.03
2023-02-04T02:36:32.274Z,7.98
2023-02-04T02:37:14.153Z,8.07
2023-02-04T02:37:55.780Z,8.07
2023-02-04T02:38:37.544Z,8.07
2023-02-04T02:39:19.952Z,7.89
2023-02-04T02:40:02.076Z,8.06
2023-02-04T02:40:44.541Z,8.06
2023-02-04T02:41:26.309Z,7.96
2023-02-04T02:42:08.271Z,8.05
2023-02-04T02:42:53.150Z,8.01
2023-02-04T02:43:36.890Z,8.07
2023-02-04T02:44:19.723Z,8.08
2023-02-04T02:45:06.771Z,8.06
2023-02-04T02:45:49.820Z,8.07
2023-02-04T02:46:31.711Z,8.07
2023-02-04T02:47:18.495Z,8.06
2023-02-04T02:48:04.876Z,8.08
2023-02-04T02:48:46.727Z,7.90
2023-02-04T02:49:32.389Z,7.94
2023-02-04T02:50:19.673Z,8.05
2023-02-04T02:51:01.609Z,7.99
2023-02-04T02:51:44.182Z,8.03
2023-02-04T02:52:25.808Z,8.03
2023-02-04T02:53:16.506Z,7.89
2023-02-04T02:53:59.667Z,7.97
2023-02-04T02:54:42.071Z,8.02
2023-02-04T02:55:28.582Z,8.01
2023-02-04T02:56:11.262Z,7.95
2023-02-04T02:56:53.493Z,8.02
2023-02-04T02:57:37.338Z,8.02
2023-02-04T02:58:29.015Z,7.90
2023-02-04T02:59:16.318Z,8.01
2023-02-04T02:59:58.740Z,7.96
2023-02-04T03:00:40.437Z,7.90
2023-02-04T03:01:22.908Z,7.79
2023-02-04T03:02:06.573Z,7.93
2023-02-04T03:03:15.575Z,7.92
2023-02-04T03:03:57.225Z,7.90
2023-02-04T03:04:43.233Z,7.89
2023-02-04T03:05:33.875Z,7.89
2023-02-04T03:06:20.519Z,7.60
2023-02-04T03:07:03.319Z,7.89
2023-02-04T03:07:45.081Z,7.78
2023-02-04T03:08:28.616Z,7.78
2023-02-04T03:09:10.578Z,7.90
2023-02-04T03:09:53.576Z,7.89
2023-02-04T03:10:35.684Z,7.81
2023-02-04T03:11:17.286Z,7.91
2023-02-04T03:11:59.066Z,7.91
2023-02-04T03:12:40.829Z,7.91
2023-02-04T03:13:22.815Z,7.91
2023-02-04T03:14:05.371Z,7.94
2023-02-04T03:14:47.461Z,7.91
2023-02-04T03:15:29.717Z,7.82
2023-02-04T03:16:12.669Z,7.86
2023-02-04T03:16:55.753Z,7.91
2023-02-04T03:17:37.674Z,7.74
2023-02-04T03:18:21.143Z,7.93
2023-02-04T03:19:03.930Z,7.76
2023-02-04T03:19:45.578Z,7.80
2023-02-04T03:20:31.169Z,7.84
2023-02-04T03:21:13.773Z,7.83
2023-02-04T03:21:56.552Z,7.89
2023-02-04T03:22:38.304Z,7.95
2023-02-04T03:23:21.001Z,7.96
2023-02-04T03:24:02.925Z,7.76
2023-02-04T03:24:44.616Z,7.89
2023-02-04T03:25:28.274Z,7.85
2023-02-04T03:26:12.064Z,7.85
2023-02-04T03:26:54.002Z,7.80
2023-02-04T03:27:35.729Z,7.89
2023-02-04T03:28:17.710Z,7.70
2023-02-04T03:28:59.765Z,7.87
2023-02-04T03:29:44.316Z,7.75
2023-02-04T03:30:26.764Z,7.85
2023-02-04T03:31:08.854Z,7.84
2023-02-04T03:31:50.710Z,7.81
2023-02-04T03:32:32.391Z,7.79
2023-02-04T03:33:13.994Z,7.79
2023-02-04T03:33:55.696Z,7.78
2023-02-04T03:34:37.375Z,7.79
2023-02-04T03:35:19.834Z,7.63
2023-02-04T03:36:01.552Z,7.74
2023-02-04T03:36:43.372Z,7.66
2023-02-04T03:37:24.974Z,7.77
2023-02-04T03:38:06.646Z,7.76
2023-02-04T03:38:48.350Z,7.72
2023-02-04T03:39:30.011Z,7.74
2023-02-04T03:40:12.783Z,7.74
2023-02-04T03:40:54.587Z,7.65
2023-02-04T03:41:36.266Z,7.57
2023-02-04T03:42:18.021Z,7.74
2023-02-04T03:42:59.722Z,7.74
2023-02-04T03:43:41.332Z,7.74
2023-02-04T03:44:26.762Z,7.66
2023-02-04T03:45:09.138Z,7.62
2023-02-04T03:45:50.828Z,7.72
2023-02-04T03:46:32.464Z,7.72
2023-02-04T03:47:14.126Z,7.57
2023-02-04T03:47:55.753Z,7.70
2023-02-04T03:48:37.367Z,7.65
2023-02-04T03:49:18.977Z,7.60
2023-02-04T03:50:00.706Z,7.66
2023-02-04T03:50:42.494Z,7.55
2023-02-04T03:51:24.336Z,7.47
2023-02-04T03:52:06.287Z,7.47
2023-02-04T03:52:50.041Z,7.50
2023-02-04T03:53:31.672Z,7.45
2023-02-04T03:54:13.548Z,7.29
2023-02-04T03:54:55.196Z,7.36
2023-02-04T03:55:37.431Z,7.33
2023-02-04T03:56:19.167Z,7.30
2023-02-04T03:57:00.788Z,7.19
2023-02-04T03:57:42.513Z,7.25
2023-02-04T03:58:24.410Z,7.11
2023-02-04T03:59:06.142Z,7.16
2023-02-04T03:59:47.759Z,7.04
2023-02-04T04:00:29.896Z,7.20
2023-02-04T04:01:11.661Z,7.18
2023-02-04T04:01:53.427Z,7.16
2023-02-04T04:02:35.099Z,7.17
2023-02-04T04:03:16.783Z,6.96
2023-02-04T04:03:58.689Z,7.17
2023-02-04T04:04:40.481Z,7.17
2023-02-04T04:05:22.145Z,6.99
2023-02-04T04:06:06.353Z,7.13
2023-02-04T04:06:48.077Z,7.12
2023-02-04T04:07:29.735Z,7.11
2023-02-04T04:08:11.510Z,7.07
2023-02-04T04:08:53.141Z,7.04
2023-02-04T04:09:34.775Z,7.05
2023-02-04T04:10:16.923Z,6.98
2023-02-04T04:10:58.570Z,7.03
2023-02-04T04:11:40.242Z,7.02
2023-02-04T04:12:21.893Z,6.87
2023-02-04T04:13:03.861Z,6.94
2023-02-04T04:13:45.520Z,7.01
2023-02-04T04:14:27.149Z,6.93
2023-02-04T04:15:09.339Z,6.84
2023-02-04T04:15:51.019Z,7.00
2023-02-04T04:16:32.662Z,6.93
2023-02-04T04:17:14.395Z,6.93
2023-02-04T04:17:56.184Z,6.98
2023-02-04T04:18:37.804Z,6.98
2023-02-04T04:19:19.413Z,6.83
2023-02-04T04:20:01.081Z,6.97
2023-02-04T04:20:42.776Z,6.97
2023-02-04T04:21:24.466Z,6.98
2023-02-04T04:22:06.138Z,6.94
2023-02-04T04:22:47.718Z,6.95
2023-02-04T04:23:29.458Z,6.73
2023-02-04T04:24:11.184Z,6.81
2023-02-04T04:24:52.956Z,6.93
2023-02-04T04:25:34.607Z,6.93
2023-02-04T04:26:17.306Z,6.73
2023-02-04T04:26:58.974Z,6.85
2023-02-04T04:27:40.690Z,6.91
2023-02-04T04:28:22.343Z,6.89
2023-02-04T04:29:04.036Z,6.72
2023-02-04T04:29:45.746Z,6.89
2023-02-04T04:30:30.659Z,6.88
2023-02-04T04:31:12.712Z,6.81
2023-02-04T04:31:54.423Z,6.88
2023-02-04T04:32:36.127Z,6.88
2023-02-04T04:33:17.725Z,6.84
2023-02-04T04:33:59.310Z,6.86
2023-02-04T04:34:40.982Z,6.86
2023-02-04T04:35:22.637Z,6.79
2023-02-04T04:36:04.768Z,6.75
2023-02-04T04:36:46.444Z,6.83
2023-02-04T04:37:28.090Z,6.84
2023-02-04T04:38:09.766Z,6.82
2023-02-04T04:38:51.462Z,6.81
2023-02-04T04:39:33.275Z,6.81
2023-02-04T04:40:15.071Z,6.77
2023-02-04T04:40:56.747Z,6.77
2023-02-04T04:41:38.449Z,6.66
2023-02-04T04:42:20.108Z,6.74
2023-02-04T04:43:01.922Z,6.82
2023-02-04T04:43:43.539Z,6.76
2023-02-04T04:44:25.213Z,6.83
2023-02-04T04:45:09.604Z,6.83
2023-02-04T04:45:51.422Z,6.84
2023-02-04T04:46:33.148Z,6.68
2023-02-04T04:47:14.883Z,6.89
2023-02-04T04:47:56.569Z,6.91
2023-02-04T04:48:38.402Z,6.96
2023-02-04T04:49:20.489Z,6.85
2023-02-04T04:50:02.358Z,7.02
2023-02-04T04:50:44.136Z,7.01
2023-02-04T04:51:25.778Z,6.82
2023-02-04T04:52:07.442Z,7.07
2023-02-04T04:52:49.089Z,6.98
2023-02-04T04:53:30.739Z,6.99
2023-02-04T04:54:12.564Z,7.14
2023-02-04T04:54:54.226Z,7.15
2023-02-04T04:55:35.813Z,7.13
2023-02-04T04:56:19.060Z,7.21
2023-02-04T04:57:01.072Z,7.23
2023-02-04T04:57:42.750Z,7.13
2023-02-04T04:58:24.497Z,7.25
2023-02-04T04:59:06.147Z,7.16
2023-02-04T04:59:47.799Z,7.13
2023-02-04T05:00:29.724Z,7.14
2023-02-04T05:01:11.542Z,7.14
2023-02-04T05:01:53.302Z,7.12
2023-02-04T05:02:35.002Z,7.10
2023-02-04T05:03:16.689Z,7.11
2023-02-04T05:03:58.303Z,7.09
2023-02-04T05:04:39.968Z,7.12
2023-02-04T05:05:21.617Z,7.14
2023-02-04T05:06:03.325Z,7.04
2023-02-04T05:06:45.228Z,7.13
2023-02-04T05:07:27.655Z,7.14
2023-02-04T05:08:14.055Z,7.09
2023-02-04T05:08:55.648Z,7.11
2023-02-04T05:09:37.246Z,7.00
2023-02-04T05:10:19.782Z,7.06
2023-02-04T05:11:03.037Z,7.05
2023-02-04T05:11:44.712Z,6.97
2023-02-04T05:12:26.388Z,6.97
2023-02-04T05:13:08.198Z,7.04
2023-02-04T05:13:49.883Z,7.03
2023-02-04T05:14:31.835Z,6.94
2023-02-04T05:15:13.514Z,6.97
2023-02-04T05:15:55.265Z,6.84
2023-02-04T05:16:37.028Z,6.72
2023-02-04T05:17:18.701Z,6.91
2023-02-04T05:18:00.362Z,6.85
2023-02-04T05:18:42.303Z,6.82
2023-02-04T05:19:24.026Z,6.77
2023-02-04T05:20:05.933Z,6.78
2023-02-04T05:20:47.570Z,6.63
2023-02-04T05:21:29.176Z,6.74
2023-02-04T05:22:11.105Z,6.66
2023-02-04T05:22:52.749Z,6.68
2023-02-04T05:23:34.977Z,6.78
2023-02-04T05:24:16.677Z,6.61
2023-02-04T05:24:58.289Z,6.80
2023-02-04T05:25:40.516Z,6.81
2023-02-04T05:26:29.934Z,6.65
2023-02-04T05:27:12.560Z,6.85
2023-02-04T05:27:54.687Z,6.91
2023-02-04T05:28:36.341Z,6.94
2023-02-04T05:29:18.058Z,6.96
2023-02-04T05:29:59.732Z,6.98
2023-02-04T05:30:41.529Z,6.91
2023-02-04T05:31:23.367Z,6.99
2023-02-04T05:32:05.088Z,6.99
2023-02-04T05:32:46.794Z,6.98
2023-02-04T05:33:28.389Z,6.96
2023-02-04T05:34:10.164Z,6.87
2023-02-04T05:34:51.854Z,6.73
2023-02-04T05:35:33.493Z,6.82
2023-02-04T05:36:15.169Z,6.78
2023-02-04T05:36:56.751Z,6.78
2023-02-04T05:37:38.397Z,6.75
2023-02-04T05:38:20.038Z,6.74
2023-02-04T05:39:01.768Z,6.73
2023-02-04T05:39:43.498Z,6.72
2023-02-04T05:40:25.133Z,6.70
2023-02-04T05:41:06.752Z,6.70
2023-02-04T05:41:48.456Z,6.56
2023-02-04T05:42:30.104Z,6.72
2023-02-04T05:43:12.186Z,6.75
2023-02-04T05:43:54.418Z,6.77
2023-02-04T05:44:36.057Z,6.82
2023-02-04T05:45:19.058Z,6.70
2023-02-04T05:46:01.846Z,6.86
2023-02-04T05:46:43.557Z,6.91
2023-02-04T05:47:25.179Z,6.95
2023-02-04T05:48:06.847Z,6.89
2023-02-04T05:48:48.618Z,6.83
2023-02-04T05:49:30.249Z,6.95
2023-02-04T05:50:11.977Z,6.86
2023-02-04T05:50:53.656Z,6.73
2023-02-04T05:51:35.310Z,6.91
2023-02-04T05:52:16.914Z,6.89
2023-02-04T05:52:58.565Z,6.89
2023-02-04T05:53:40.163Z,6.71
2023-02-04T05:54:21.863Z,6.86
2023-02-04T05:55:04.071Z,6.90
2023-02-04T05:55:45.724Z,6.92
2023-02-04T05:56:27.439Z,6.92
2023-02-04T05:57:09.157Z,6.91
2023-02-04T05:57:50.833Z,6.93
2023-02-04T05:58:35.568Z,6.84
2023-02-04T05:59:17.775Z,6.88
2023-02-04T05:59:59.460Z,6.92
2023-02-04T06:00:41.100Z,6.88
2023-02-04T06:01:22.805Z,6.92
2023-02-04T06:02:04.395Z,6.94
2023-02-04T06:02:46.079Z,6.77
2023-02-04T06:03:28.649Z,6.94
2023-02-04T06:04:10.541Z,6.57
2023-02-04T06:04:52.282Z,6.87
2023-02-04T06:05:34.012Z,6.87
2023-02-04T06:06:15.603Z,6.49
2023-02-04T06:06:57.272Z,6.81
2023-02-04T06:07:38.974Z,6.85
2023-02-04T06:08:20.968Z,6.97
2023-02-04T06:09:02.944Z,6.95
2023-02-04T06:09:44.864Z,6.89
2023-02-04T06:10:26.609Z,6.91
2023-02-04T06:11:08.240Z,6.93
2023-02-04T06:11:49.843Z,6.93
2023-02-04T06:12:31.543Z,6.91
2023-02-04T06:13:13.142Z,6.91
2023-02-04T06:13:54.793Z,6.92
2023-02-04T06:14:36.510Z,6.89
2023-02-04T06:15:18.304Z,6.88
2023-02-04T06:15:59.910Z,6.89
2023-02-04T06:16:41.667Z,6.91
2023-02-04T06:17:23.378Z,6.89
2023-02-04T06:18:04.963Z,6.85
2023-02-04T06:18:46.625Z,6.72
2023-02-04T06:19:28.293Z,6.88
2023-02-04T06:20:13.251Z,6.81
2023-02-04T06:20:54.881Z,6.73
2023-02-04T06:21:36.586Z,6.84
2023-02-04T06:22:18.211Z,6.87
2023-02-04T06:22:59.924Z,6.82
2023-02-04T06:23:41.579Z,6.66
2023-02-04T06:24:23.186Z,6.81
2023-02-04T06:25:05.072Z,6.73
2023-02-04T06:25:48.803Z,6.79
2023-02-04T06:26:30.402Z,6.69
2023-02-04T06:27:12.018Z,6.64
2023-02-04T06:27:53.651Z,6.81
2023-02-04T06:28:35.328Z,6.81
2023-02-04T06:29:19.613Z,6.82
2023-02-04T06:30:01.285Z,6.77
2023-02-04T06:30:44.639Z,6.81
2023-02-04T06:31:26.448Z,6.66
2023-02-04T06:32:08.132Z,6.79
2023-02-04T06:32:49.791Z,6.75
2023-02-04T06:33:31.501Z,6.68
2023-02-04T06:34:13.123Z,6.56
2023-02-04T06:34:54.752Z,6.75
2023-02-04T06:35:36.405Z,6.65
2023-02-04T06:36:18.123Z,6.64
2023-02-04T06:36:59.874Z,6.66
2023-02-04T06:37:41.470Z,6.71
2023-02-04T06:38:23.181Z,6.69
2023-02-04T06:39:04.808Z,6.69
2023-02-04T06:39:46.457Z,6.47
2023-02-04T06:40:28.100Z,6.68
2023-02-04T06:41:09.709Z,6.54
2023-02-04T06:41:51.290Z,6.60
2023-02-04T06:42:32.910Z,6.59
2023-02-04T06:43:17.724Z,6.53
2023-02-04T06:43:59.340Z,6.60
2023-02-04T06:44:40.963Z,6.58
2023-02-04T06:45:22.719Z,6.58
2023-02-04T06:46:04.505Z,6.65
2023-02-04T06:46:46.178Z,6.65
2023-02-04T06:47:27.860Z,6.64
2023-02-04T06:48:09.546Z,6.59
2023-02-04T06:48:51.289Z,6.62
2023-02-04T06:49:32.913Z,6.61
2023-02-04T06:50:18.699Z,6.55
2023-02-04T06:51:00.373Z,6.45
2023-02-04T06:51:42.014Z,6.50
2023-02-04T06:52:23.623Z,6.47
2023-02-04T06:53:05.340Z,6.56
2023-02-04T06:53:46.963Z,6.43
2023-02-04T06:54:28.597Z,6.53
2023-02-04T06:55:10.211Z,6.60
2023-02-04T06:55:52.737Z,6.42
2023-02-04T06:56:34.466Z,6.58
2023-02-04T06:57:16.070Z,6.57
2023-02-04T06:57:57.735Z,6.58
2023-02-04T06:58:39.514Z,6.58
2023-02-04T06:59:21.163Z,6.59
2023-02-04T07:00:02.862Z,6.60
2023-02-04T07:00:44.769Z,6.61
2023-02-04T07:01:26.478Z,6.62
2023-02-04T07:02:08.259Z,6.49
2023-02-04T07:02:50.065Z,6.60
2023-02-04T07:03:32.058Z,6.53
2023-02-04T07:04:13.709Z,6.60
2023-02-04T07:04:55.412Z,6.57
2023-02-04T07:05:37.087Z,6.55
2023-02-04T07:06:18.737Z,6.44
2023-02-04T07:07:00.459Z,6.45
2023-02-04T07:07:42.073Z,6.38
2023-02-04T07:08:23.835Z,6.38
2023-02-04T07:12:11.117Z,6.04
2023-02-04T07:12:52.862Z,6.29
2023-02-04T07:13:34.514Z,6.30
2023-02-04T07:14:16.514Z,6.30
2023-02-04T07:14:58.250Z,6.29
2023-02-04T07:15:39.910Z,6.28
2023-02-04T07:16:21.612Z,6.27
2023-02-04T07:17:03.634Z,6.11
2023-02-04T07:17:45.266Z,6.27
2023-02-04T07:18:26.909Z,6.28
2023-02-04T07:19:08.570Z,6.07
2023-02-04T07:19:50.272Z,6.23
2023-02-04T07:20:32.280Z,6.08
2023-02-04T07:21:14.085Z,6.21
2023-02-04T07:21:56.906Z,6.11
2023-02-04T07:22:38.923Z,6.30
2023-02-04T07:23:20.648Z,6.30
2023-02-04T07:24:02.562Z,6.27
2023-02-04T07:24:44.316Z,6.24
2023-02-04T07:25:26.042Z,6.34
2023-02-04T07:26:07.735Z,6.36
2023-02-04T07:26:49.964Z,6.19
2023-02-04T07:27:31.594Z,6.31
2023-02-04T07:28:13.240Z,6.40
2023-02-04T07:28:55.017Z,6.41
2023-02-04T07:29:36.702Z,6.41
2023-02-04T07:30:18.400Z,6.39
2023-02-04T07:31:00.184Z,6.28
2023-02-04T07:31:42.226Z,6.28
2023-02-04T07:32:24.021Z,6.21
2023-02-04T07:33:05.706Z,6.06
2023-02-04T07:33:47.531Z,6.08
2023-02-04T07:34:29.171Z,6.03
2023-02-04T07:35:12.514Z,6.14
2023-02-04T07:35:54.236Z,6.24
2023-02-04T07:36:35.967Z,6.12
2023-02-04T07:37:17.882Z,6.26
2023-02-04T07:37:59.524Z,6.26
2023-02-04T07:38:41.192Z,6.18
2023-02-04T07:39:22.942Z,6.13
2023-02-04T07:40:05.060Z,6.25
2023-02-04T07:40:46.696Z,6.13
2023-02-04T07:41:28.555Z,6.31
2023-02-04T07:42:10.246Z,6.44
2023-02-04T07:42:59.376Z,6.31
2023-02-04T07:43:42.321Z,6.35
2023-02-04T07:44:23.993Z,6.55
2023-02-04T07:45:06.086Z,6.55
2023-02-04T07:45:47.732Z,6.51
2023-02-04T07:46:29.696Z,6.44
2023-02-04T07:47:12.554Z,6.39
2023-02-04T07:47:54.280Z,6.45
2023-02-04T07:48:35.929Z,6.59
2023-02-04T07:49:17.588Z,6.52
2023-02-04T07:49:59.274Z,6.64
2023-02-04T07:50:41.075Z,6.67
2023-02-04T07:51:22.842Z,6.69
2023-02-04T07:52:04.707Z,6.69
2023-02-04T07:52:46.407Z,6.56
2023-02-04T07:53:28.077Z,6.64
2023-02-04T07:54:09.787Z,6.70
2023-02-04T07:54:52.475Z,6.68
2023-02-04T07:55:35.195Z,6.77
2023-02-04T07:56:16.825Z,6.61
2023-02-04T07:56:58.516Z,6.66
2023-02-04T07:57:40.254Z,6.80
2023-02-04T07:58:22.781Z,6.80
2023-02-04T07:59:04.507Z,6.76
2023-02-04T07:59:46.134Z,6.66
2023-02-04T08:00:27.755Z,6.88
2023-02-04T08:01:09.443Z,6.91
2023-02-04T08:01:51.162Z,6.85
2023-02-04T08:02:32.948Z,6.88
2023-02-04T08:03:14.744Z,6.94
2023-02-04T08:03:56.401Z,6.53
2023-02-04T08:04:38.202Z,6.95
2023-02-04T08:05:19.914Z,6.94
2023-02-04T08:06:01.987Z,6.95
2023-02-04T08:06:43.732Z,6.86
2023-02-04T08:07:25.470Z,6.99
2023-02-04T08:08:07.237Z,7.01
2023-02-04T08:08:48.931Z,6.87
2023-02-04T08:09:30.789Z,6.93
2023-02-04T08:10:12.788Z,6.95
2023-02-04T08:10:54.452Z,6.99
2023-02-04T08:11:36.158Z,7.08
2023-02-04T08:12:17.957Z,7.08
2023-02-04T08:12:59.605Z,7.04
2023-02-04T08:13:41.276Z,7.09
2023-02-04T08:14:22.974Z,7.09
2023-02-04T08:15:07.425Z,7.10
2023-02-04T08:15:49.272Z,7.11
2023-02-04T08:16:31.198Z,7.08
2023-02-04T08:17:12.855Z,7.06
2023-02-04T08:17:54.523Z,6.97
2023-02-04T08:18:36.178Z,6.98
2023-02-04T08:19:20.688Z,6.94
2023-02-04T08:20:02.854Z,6.93
2023-02-04T08:20:44.535Z,6.87
2023-02-04T08:21:26.164Z,6.93
2023-02-04T08:22:07.925Z,6.84
2023-02-04T08:22:49.667Z,6.80
2023-02-04T08:23:31.446Z,6.89
2023-02-04T08:24:13.935Z,6.90
2023-02-04T08:24:55.767Z,6.91
2023-02-04T08:25:37.604Z,7.15
2023-02-04T08:26:19.282Z,7.29
2023-02-04T08:27:00.941Z,7.22
2023-02-04T08:27:42.871Z,7.44
2023-02-04T08:28:24.697Z,7.73
2023-02-04T08:29:08.730Z,7.92
2023-02-04T08:29:50.455Z,8.20
2023-02-04T08:30:32.361Z,8.29
2023-02-04T08:31:14.269Z,8.68
2023-02-04T08:31:55.997Z,8.72
2023-02-04T08:32:37.910Z,8.88
2023-02-04T08:33:20.978Z,9.18
2023-02-04T08:34:02.885Z,9.33
2023-02-04T08:34:44.927Z,9.42
2023-02-04T08:35:26.585Z,9.47
2023-02-04T08:36:08.643Z,9.63
2023-02-04T08:36:50.289Z,9.60
2023-02-04T08:37:32.010Z,9.64
2023-02-04T08:38:13.634Z,9.78
2023-02-04T08:38:55.344Z,9.70
2023-02-04T08:39:38.407Z,9.81
2023-02-04T08:40:20.583Z,9.89
2023-02-04T08:41:02.247Z,9.89
2023-02-04T08:41:44.002Z,9.90
2023-02-04T08:42:25.639Z,9.91
2023-02-04T08:43:07.247Z,9.97
2023-02-04T08:43:48.916Z,10.02
2023-02-04T08:44:30.635Z,10.08
2023-02-04T08:45:12.326Z,10.03
2023-02-04T08:45:53.979Z,10.06
2023-02-04T08:46:35.848Z,10.29
2023-02-04T08:47:17.562Z,10.25
2023-02-04T08:47:59.199Z,10.40
2023-02-04T08:48:40.879Z,10.41
2023-02-04T08:49:22.976Z,10.53
2023-02-04T08:50:04.907Z,10.59
2023-02-04T08:50:46.578Z,10.57
2023-02-04T08:51:28.248Z,10.65
2023-02-04T08:52:10.064Z,10.79
2023-02-04T08:52:51.719Z,10.88
2023-02-04T08:53:33.418Z,10.85
2023-02-04T08:54:15.098Z,10.98
2023-02-04T08:54:56.934Z,11.07
2023-02-04T08:55:38.547Z,11.16
2023-02-04T08:56:20.599Z,11.06
2023-02-04T08:57:02.848Z,11.22
2023-02-04T08:57:44.499Z,11.40
2023-02-04T08:58:26.174Z,11.51
2023-02-04T08:59:07.816Z,11.54
2023-02-04T08:59:49.553Z,11.67
2023-02-04T09:00:31.738Z,11.81
2023-02-04T09:01:14.100Z,11.75
2023-02-04T09:01:55.880Z,11.76
2023-02-04T09:02:37.593Z,11.74
2023-02-04T09:03:19.217Z,11.77
2023-02-04T09:04:00.825Z,11.66
2023-02-04T09:04:42.477Z,11.48
2023-02-04T09:05:24.195Z,11.15
2023-02-04T09:06:06.897Z,10.84
2023-02-04T09:06:49.674Z,10.52
2023-02-04T09:07:31.363Z,10.28
2023-02-04T09:08:13.166Z,10.03
2023-02-04T09:08:54.861Z,10.20
2023-02-04T09:09:36.889Z,10.03
2023-02-04T09:10:18.619Z,10.32
2023-02-04T09:11:00.456Z,10.43
2023-02-04T09:11:43.548Z,10.39
2023-02-04T09:12:25.232Z,10.39
2023-02-04T09:13:09.130Z,10.36
2023-02-04T09:13:50.748Z,10.50
2023-02-04T09:14:32.387Z,10.42
2023-02-04T09:15:14.157Z,10.25
2023-02-04T09:15:56.096Z,10.28
2023-02-04T09:16:37.781Z,10.04
2023-02-04T09:17:19.425Z,10.12
2023-02-04T09:18:15.102Z,10.03
2023-02-04T09:18:58.396Z,9.95
2023-02-04T09:19:40.045Z,9.96
2023-02-04T09:20:21.786Z,9.96
2023-02-04T09:21:03.808Z,9.87
2023-02-04T09:21:45.964Z,9.88
2023-02-04T09:22:27.649Z,9.72
2023-02-04T09:23:11.945Z,9.58
2023-02-04T09:23:53.802Z,9.51
2023-02-04T09:24:35.497Z,9.27
2023-02-04T09:25:17.147Z,9.40